Time;durP1;ratioP1;P1;durP2;ratioP2;P2;SDS_P1;SDS_P2;PMS_P1;PMS_P2;Temp;Humidity;BMP_temperature;BMP_pressure;BME280_temperature;BME280_humidity;BME280_pressure;Samples;Min_cycle;Max_cycle;Signal;HPM_P1;HPM_P2
2023/07/05 00:00:26;;;;;;;3.05;2.35;;;17.20;99.90;;;;;;4976527;28;20180;-41
2023/07/05 00:02:52;;;;;;;3.60;2.47;;;17.10;99.90;;;;;;4975704;28;20190;-41
2023/07/05 00:05:19;;;;;;;5.33;2.57;;;16.80;99.90;;;;;;4975416;28;20179;-42
2023/07/05 00:07:44;;;;;;;3.30;2.50;;;16.50;99.90;;;;;;5003078;28;20216;-40
2023/07/05 00:10:11;;;;;;;3.90;2.63;;;16.50;99.90;;;;;;4974829;28;20200;-39
2023/07/05 00:12:37;;;;;;;3.57;2.33;;;16.50;99.90;;;;;;4989710;28;20187;-41
2023/07/05 00:15:08;;;;;;;4.60;2.30;;;16.50;99.90;;;;;;4976634;28;20176;-39
2023/07/05 00:17:36;;;;;;;3.73;2.27;;;16.50;99.90;;;;;;4987008;28;20203;-39
2023/07/05 00:20:07;;;;;;;5.20;2.60;;;16.50;99.90;;;;;;4997345;28;20212;-41
2023/07/05 00:22:34;;;;;;;3.70;2.50;;;16.60;99.90;;;;;;4988827;28;20244;-39
2023/07/05 00:25:03;;;;;;;2.97;2.43;;;16.60;99.90;;;;;;4984475;28;20181;-40
2023/07/05 00:27:29;;;;;;;3.37;2.70;;;16.60;99.90;;;;;;5004670;28;20291;-41
2023/07/05 00:29:55;;;;;;;2.80;2.50;;;16.50;99.90;;;;;;4975366;28;20298;-41
2023/07/05 00:32:21;;;;;;;3.10;2.60;;;16.60;99.90;;;;;;4975555;28;20271;-42
2023/07/05 00:34:47;;;;;;;3.50;2.17;;;16.60;99.90;;;;;;4991738;28;20194;-40
2023/07/05 00:37:13;;;;;;;5.03;2.67;;;16.50;99.90;;;;;;4974942;28;20261;-37
2023/07/05 00:39:40;;;;;;;2.63;2.40;;;16.50;99.90;;;;;;4977267;28;20193;-37
2023/07/05 00:42:06;;;;;;;3.70;2.50;;;16.50;99.90;;;;;;5004891;28;20675;-41
2023/07/05 00:44:32;;;;;;;3.00;2.50;;;16.50;99.90;;;;;;4983978;28;20184;-41
2023/07/05 00:47:25;;;;;;;2.40;2.13;;;16.50;99.90;;;;;;5007893;28;20190;-39
2023/07/05 00:49:51;;;;;;;4.83;2.70;;;16.50;99.90;;;;;;4979629;28;20235;-40
2023/07/05 00:52:18;;;;;;;4.87;2.67;;;16.50;99.90;;;;;;4975500;28;20215;-41
2023/07/05 00:54:48;;;;;;;3.40;2.80;;;16.50;99.90;;;;;;4973902;28;20184;-40
2023/07/05 00:57:19;;;;;;;3.93;2.30;;;16.60;99.90;;;;;;4972758;28;20203;-39
2023/07/05 00:59:54;;;;;;;3.27;2.43;;;16.70;99.90;;;;;;5006908;28;20191;-41
2023/07/05 01:02:21;;;;;;;3.67;2.43;;;16.70;99.90;;;;;;4974508;28;20191;-42
2023/07/05 01:04:46;;;;;;;4.03;2.70;;;16.80;99.90;;;;;;4962609;28;20184;-41
2023/07/05 01:07:12;;;;;;;2.80;2.60;;;16.80;99.90;;;;;;4968107;28;20239;-40
2023/07/05 01:09:40;;;;;;;4.63;2.83;;;16.80;99.90;;;;;;4977886;28;20176;-42
2023/07/05 01:12:23;;;;;;;4.03;2.40;;;16.80;99.90;;;;;;4981000;28;20180;-38
2023/07/05 01:14:49;;;;;;;3.10;2.80;;;16.70;99.90;;;;;;4989211;28;20207;-38
2023/07/05 01:17:22;;;;;;;3.20;2.40;;;16.60;99.90;;;;;;4978738;28;20204;-38
2023/07/05 01:20:00;;;;;;;3.50;2.73;;;16.60;99.90;;;;;;5002729;28;20179;-41
2023/07/05 01:23:04;;;;;;;5.22;2.88;;;16.60;99.90;;;;;;4969895;28;20183;-40
2023/07/05 01:25:51;;;;;;;4.60;2.80;;;16.50;99.90;;;;;;4971417;28;20298;-40
2023/07/05 01:28:45;;;;;;;3.53;3.10;;;16.40;99.90;;;;;;4981340;28;20196;-38
2023/07/05 01:31:10;;;;;;;3.87;2.63;;;16.40;99.90;;;;;;4972173;28;20208;-40
2023/07/05 01:33:54;;;;;;;3.47;2.53;;;16.30;99.90;;;;;;4990120;28;20287;-42
2023/07/05 01:36:20;;;;;;;3.27;2.50;;;16.30;99.90;;;;;;4976738;28;20207;-38
2023/07/05 01:38:46;;;;;;;4.10;2.87;;;16.30;99.90;;;;;;4987098;28;20216;-40
2023/07/05 01:41:14;;;;;;;4.57;2.93;;;16.20;99.90;;;;;;4952464;28;20211;-41
2023/07/05 01:43:43;;;;;;;3.07;2.77;;;16.30;99.90;;;;;;4961341;28;20184;-39
2023/07/05 01:46:30;;;;;;;4.00;2.73;;;16.30;99.90;;;;;;4966405;28;20192;-37
2023/07/05 01:49:01;;;;;;;5.57;3.07;;;16.20;99.90;;;;;;5002068;28;20215;-41
2023/07/05 01:52:06;;;;;;;4.37;2.97;;;16.30;99.90;;;;;;4973890;28;20214;-39
2023/07/05 01:54:40;;;;;;;4.07;2.90;;;16.30;99.90;;;;;;4972514;28;20216;-39
2023/07/05 01:57:27;;;;;;;4.87;2.57;;;16.40;99.90;;;;;;4988537;28;20204;-40
2023/07/05 02:00:07;;;;;;;5.33;2.97;;;16.50;99.90;;;;;;4971528;28;20187;-42
2023/07/05 02:02:42;;;;;;;4.20;3.10;;;16.50;99.90;;;;;;4985561;28;20192;-43
2023/07/05 02:05:09;;;;;;;5.87;2.80;;;16.50;99.90;;;;;;4970236;28;20177;-43
2023/07/05 02:07:36;;;;;;;4.10;2.97;;;16.60;99.90;;;;;;4982447;28;20208;-43
2023/07/05 02:10:02;;;;;;;4.53;2.90;;;16.60;99.90;;;;;;4973829;28;20208;-42
2023/07/05 02:12:29;;;;;;;4.50;3.13;;;16.50;99.90;;;;;;4973988;28;20180;-43
2023/07/05 02:14:56;;;;;;;4.23;3.23;;;16.40;99.90;;;;;;4974249;28;20195;-42
2023/07/05 02:17:22;;;;;;;5.17;2.60;;;16.40;99.90;;;;;;4978631;28;20198;-42
2023/07/05 02:19:48;;;;;;;6.17;2.93;;;16.40;99.90;;;;;;4975034;28;20179;-42
2023/07/05 02:22:14;;;;;;;3.30;2.73;;;16.50;99.90;;;;;;4968067;28;20214;-40
2023/07/05 02:24:40;;;;;;;3.17;2.77;;;16.50;99.90;;;;;;4992183;28;20179;-40
2023/07/05 02:27:07;;;;;;;3.67;2.37;;;16.50;99.90;;;;;;4973297;28;20204;-42
2023/07/05 02:29:34;;;;;;;5.60;2.83;;;16.50;99.90;;;;;;4973383;28;20176;-42
2023/07/05 02:32:00;;;;;;;3.33;2.60;;;16.40;99.90;;;;;;4973979;28;20283;-42
2023/07/05 02:34:27;;;;;;;2.73;2.50;;;16.50;99.90;;;;;;4991789;28;20210;-42
2023/07/05 02:36:53;;;;;;;5.93;2.80;;;16.40;99.90;;;;;;4991011;28;20209;-42
2023/07/05 02:39:19;;;;;;;3.20;2.90;;;16.40;99.90;;;;;;4971668;28;20206;-42
2023/07/05 02:41:45;;;;;;;3.23;2.93;;;16.50;99.90;;;;;;4990193;28;20181;-41
2023/07/05 02:44:11;;;;;;;2.97;2.70;;;16.50;99.90;;;;;;4968457;28;20187;-43
2023/07/05 02:46:38;;;;;;;3.93;2.90;;;16.50;99.90;;;;;;4991795;28;20270;-43
2023/07/05 02:49:04;;;;;;;3.30;2.93;;;16.60;99.90;;;;;;5008195;28;20291;-43
2023/07/05 02:51:32;;;;;;;7.47;3.50;;;16.60;99.90;;;;;;4977233;28;20211;-43
2023/07/05 02:53:58;;;;;;;8.37;3.00;;;16.60;99.90;;;;;;4964011;28;20180;-43
2023/07/05 02:56:25;;;;;;;5.70;3.13;;;16.70;99.90;;;;;;4971528;28;20184;-42
2023/07/05 02:58:50;;;;;;;5.05;3.03;;;16.80;99.90;;;;;;4976645;28;20223;-43
2023/07/05 03:01:17;;;;;;;6.23;3.20;;;16.80;99.90;;;;;;4976243;28;20660;-42
2023/07/05 03:03:43;;;;;;;7.03;2.70;;;16.80;99.90;;;;;;4968451;28;20185;-43
2023/07/05 03:06:09;;;;;;;4.57;2.60;;;16.80;99.90;;;;;;4974672;28;20191;-41
2023/07/05 03:08:35;;;;;;;3.00;2.20;;;16.90;99.90;;;;;;4993334;28;20200;-43
2023/07/05 03:11:01;;;;;;;2.63;2.30;;;16.90;99.90;;;;;;4974114;28;20262;-41
2023/07/05 03:13:29;;;;;;;4.27;2.20;;;16.90;99.90;;;;;;4971892;28;20176;-42
2023/07/05 03:15:55;;;;;;;4.38;2.55;;;16.90;99.90;;;;;;4992452;28;20188;-43
2023/07/05 03:18:21;;;;;;;5.43;2.83;;;17.00;99.90;;;;;;5000153;28;20198;-43
2023/07/05 03:20:48;;;;;;;3.60;2.58;;;17.00;99.90;;;;;;4975538;28;20180;-42
2023/07/05 03:23:15;;;;;;;7.95;3.03;;;17.00;99.90;;;;;;4986024;28;20181;-42
2023/07/05 03:25:41;;;;;;;3.53;2.50;;;17.10;99.90;;;;;;4976223;28;20279;-43
2023/07/05 03:28:08;;;;;;;2.95;2.33;;;17.10;99.90;;;;;;4968959;28;20206;-42
2023/07/05 03:30:35;;;;;;;5.90;2.72;;;17.10;99.90;;;;;;4976266;28;20196;-41
2023/07/05 03:33:01;;;;;;;5.93;2.53;;;17.10;99.90;;;;;;4965071;28;20189;-41
2023/07/05 03:35:27;;;;;;;2.58;2.38;;;17.00;99.90;;;;;;4971515;28;20176;-42
2023/07/05 03:37:53;;;;;;;4.03;2.60;;;17.10;99.90;;;;;;4972533;28;20219;-44
2023/07/05 03:40:20;;;;;;;3.58;1.90;;;17.10;99.90;;;;;;4970279;28;20188;-42
2023/07/05 03:42:49;;;;;;;4.28;2.45;;;17.10;99.90;;;;;;4975366;28;20208;-43
2023/07/05 03:45:15;;;;;;;2.40;2.10;;;17.10;99.90;;;;;;4981572;28;20196;-42
2023/07/05 03:47:45;;;;;;;4.05;2.17;;;17.10;99.90;;;;;;4972704;28;20216;-42
2023/07/05 03:50:12;;;;;;;2.50;1.80;;;17.10;99.90;;;;;;4975440;28;20243;-42
2023/07/05 03:52:41;;;;;;;3.75;2.20;;;17.10;99.90;;;;;;4973042;28;20199;-42
2023/07/05 03:55:09;;;;;;;4.38;2.60;;;17.10;99.90;;;;;;4971440;28;20192;-42
2023/07/05 03:57:38;;;;;;;4.70;2.38;;;17.10;99.90;;;;;;4974678;28;20204;-41
2023/07/05 04:00:05;;;;;;;3.03;2.30;;;17.10;99.90;;;;;;4971368;28;20200;-42
2023/07/05 04:02:38;;;;;;;3.97;2.25;;;17.10;99.90;;;;;;4986222;28;20192;-42
2023/07/05 04:05:04;;;;;;;3.27;2.40;;;17.10;99.90;;;;;;4974398;28;20187;-43
2023/07/05 04:07:30;;;;;;;4.55;2.50;;;17.00;99.90;;;;;;4974987;28;20207;-42
2023/07/05 04:09:55;;;;;;;3.28;2.22;;;16.90;99.90;;;;;;4972783;28;20214;-43
2023/07/05 04:12:21;;;;;;;3.30;1.97;;;16.80;99.90;;;;;;4986452;28;20184;-43
2023/07/05 04:14:47;;;;;;;3.80;2.40;;;16.80;99.90;;;;;;4975182;28;20191;-40
2023/07/05 04:17:13;;;;;;;3.23;1.90;;;16.90;99.90;;;;;;4975869;28;20218;-42
2023/07/05 04:19:39;;;;;;;5.95;2.47;;;17.00;99.90;;;;;;5012270;28;20220;-41
2023/07/05 04:22:04;;;;;;;3.92;2.30;;;17.00;99.90;;;;;;4988722;28;20181;-43
2023/07/05 04:24:30;;;;;;;3.83;2.07;;;17.10;99.90;;;;;;4971258;28;20191;-43
2023/07/05 04:26:56;;;;;;;5.05;1.98;;;17.10;99.90;;;;;;4972788;28;20183;-43
2023/07/05 04:29:22;;;;;;;3.90;2.30;;;17.10;99.90;;;;;;4969551;28;20218;-43
2023/07/05 04:31:48;;;;;;;4.88;2.70;;;17.10;99.90;;;;;;4974444;28;20322;-42
2023/07/05 04:34:13;;;;;;;3.17;2.50;;;17.10;99.90;;;;;;4968556;28;20267;-39
2023/07/05 04:36:39;;;;;;;2.45;2.25;;;17.20;99.90;;;;;;4974741;28;20668;-43
2023/07/05 04:39:05;;;;;;;3.03;2.20;;;17.20;99.90;;;;;;4964088;28;20219;-40
2023/07/05 04:41:31;;;;;;;3.05;2.40;;;17.10;99.90;;;;;;4970205;28;20327;-42
2023/07/05 04:43:57;;;;;;;3.05;2.35;;;17.10;99.90;;;;;;4969841;28;20196;-41
2023/07/05 04:46:23;;;;;;;4.53;2.60;;;17.10;99.90;;;;;;4977452;28;20192;-42
2023/07/05 04:48:49;;;;;;;2.55;2.30;;;17.00;99.90;;;;;;5000690;28;20212;-42
2023/07/05 04:51:15;;;;;;;3.40;2.60;;;17.00;99.90;;;;;;4994160;28;20215;-39
2023/07/05 04:53:40;;;;;;;6.53;2.30;;;16.90;99.90;;;;;;4998044;28;20253;-41
2023/07/05 04:56:12;;;;;;;2.77;2.30;;;16.90;99.90;;;;;;4975729;28;20184;-43
2023/07/05 04:58:37;;;;;;;3.80;2.47;;;16.90;99.90;;;;;;4974305;28;20203;-41
2023/07/05 05:01:06;;;;;;;6.10;2.58;;;16.90;99.90;;;;;;4990258;28;20255;-42
2023/07/05 05:03:38;;;;;;;3.47;2.35;;;16.80;99.90;;;;;;4972220;28;20197;-42
2023/07/05 05:06:04;;;;;;;3.23;2.63;;;16.90;99.90;;;;;;4987965;28;20192;-40
2023/07/05 05:08:30;;;;;;;4.72;2.50;;;16.90;99.90;;;;;;4967057;28;20215;-41
2023/07/05 05:11:00;;;;;;;3.83;2.45;;;17.00;99.90;;;;;;4973375;28;20216;-42
2023/07/05 05:13:28;;;;;;;3.42;2.80;;;17.10;99.90;;;;;;4975452;28;20184;-41
2023/07/05 05:15:55;;;;;;;3.78;2.40;;;17.20;99.90;;;;;;4974916;28;20190;-43
2023/07/05 05:18:22;;;;;;;2.90;2.55;;;17.30;99.90;;;;;;4982718;28;20242;-42
2023/07/05 05:20:49;;;;;;;2.85;2.20;;;17.50;99.90;;;;;;4985892;28;20188;-41
2023/07/05 05:23:15;;;;;;;3.97;2.53;;;17.70;99.90;;;;;;4975080;28;20211;-42
2023/07/05 05:25:42;;;;;;;4.00;2.30;;;17.80;99.90;;;;;;4998392;28;20218;-42
2023/07/05 05:28:08;;;;;;;2.53;2.30;;;18.00;99.90;;;;;;4974530;28;20209;-43
2023/07/05 05:30:35;;;;;;;3.28;2.25;;;18.10;99.90;;;;;;4980512;28;20207;-42
2023/07/05 05:33:02;;;;;;;4.78;2.35;;;18.20;99.90;;;;;;4990629;28;20700;-42
2023/07/05 05:35:29;;;;;;;4.03;2.38;;;18.30;99.90;;;;;;4982616;28;20187;-42
2023/07/05 05:37:55;;;;;;;4.88;2.30;;;18.30;99.90;;;;;;4982649;28;20246;-39
2023/07/05 05:40:23;;;;;;;3.03;2.35;;;18.40;99.90;;;;;;4975584;28;20184;-42
2023/07/05 05:42:52;;;;;;;4.47;2.38;;;18.40;99.90;;;;;;4971232;28;20246;-43
2023/07/05 05:45:19;;;;;;;2.63;2.28;;;18.40;99.90;;;;;;4988539;28;20218;-42
2023/07/05 05:47:46;;;;;;;3.00;2.30;;;18.50;99.90;;;;;;4986288;28;20206;-41
2023/07/05 05:50:14;;;;;;;4.18;2.67;;;18.60;99.90;;;;;;4987227;28;20212;-42
2023/07/05 05:52:41;;;;;;;5.10;2.10;;;18.70;99.90;;;;;;4972990;28;20176;-42
2023/07/05 05:55:07;;;;;;;3.67;2.65;;;18.90;99.90;;;;;;4970832;28;20181;-42
2023/07/05 05:57:33;;;;;;;2.85;2.17;;;19.00;99.90;;;;;;4985396;28;20282;-43
2023/07/05 05:59:59;;;;;;;2.78;2.58;;;19.20;99.90;;;;;;4987501;28;20184;-41
2023/07/05 06:02:25;;;;;;;4.45;2.28;;;19.40;99.90;;;;;;4970855;28;20188;-42
2023/07/05 06:04:51;;;;;;;3.15;2.25;;;19.50;99.90;;;;;;4990818;28;20179;-40
2023/07/05 06:07:17;;;;;;;2.20;2.00;;;19.70;99.90;;;;;;4973313;28;20208;-42
2023/07/05 06:09:48;;;;;;;3.22;2.40;;;19.90;99.90;;;;;;4973684;28;20183;-40
2023/07/05 06:12:14;;;;;;;3.75;2.28;;;20.00;99.90;;;;;;4973981;28;20191;-43
2023/07/05 06:14:40;;;;;;;3.97;2.42;;;20.00;99.90;;;;;;4972258;28;20212;-43
2023/07/05 06:17:06;;;;;;;2.38;2.17;;;20.00;99.90;;;;;;5006134;28;20227;-42
2023/07/05 06:19:32;;;;;;;2.50;2.22;;;19.90;99.90;;;;;;4987642;28;20187;-42
2023/07/05 06:21:59;;;;;;;3.60;2.10;;;20.00;99.90;;;;;;4990028;28;20184;-40
2023/07/05 06:24:25;;;;;;;2.47;1.80;;;20.10;99.90;;;;;;4973980;28;20199;-42
2023/07/05 06:26:52;;;;;;;4.95;2.10;;;20.30;99.90;;;;;;4989879;28;20188;-41
2023/07/05 06:29:18;;;;;;;3.90;2.10;;;20.40;99.90;;;;;;4982083;28;20187;-41
2023/07/05 06:31:44;;;;;;;3.45;2.33;;;20.50;99.90;;;;;;4989335;28;20211;-42
2023/07/05 06:34:10;;;;;;;3.85;2.20;;;20.40;99.90;;;;;;4974006;28;20186;-43
2023/07/05 06:36:35;;;;;;;2.95;2.30;;;20.30;99.90;;;;;;4989939;28;20188;-42
2023/07/05 06:39:02;;;;;;;2.60;2.40;;;20.20;99.90;;;;;;4989683;28;20306;-41
2023/07/05 06:41:28;;;;;;;4.22;2.45;;;20.00;99.90;;;;;;4973607;28;20279;-42
2023/07/05 06:43:54;;;;;;;2.53;2.15;;;19.90;99.90;;;;;;4972659;28;20184;-42
2023/07/05 06:46:20;;;;;;;2.67;2.22;;;19.80;99.90;;;;;;4988970;28;20250;-42
2023/07/05 06:48:46;;;;;;;2.60;1.95;;;19.80;99.90;;;;;;4990686;28;20207;-42
2023/07/05 06:51:12;;;;;;;3.53;2.38;;;19.80;99.90;;;;;;5002377;28;20223;-43
2023/07/05 06:53:38;;;;;;;2.50;2.03;;;19.70;99.90;;;;;;4985772;28;20185;-42
2023/07/05 06:56:04;;;;;;;3.22;2.00;;;19.70;99.90;;;;;;4972871;28;20280;-41
2023/07/05 06:58:31;;;;;;;3.60;2.30;;;19.60;99.90;;;;;;4975641;28;20221;-43
2023/07/05 07:01:00;;;;;;;2.20;1.95;;;19.60;99.90;;;;;;4987685;28;20204;-41
2023/07/05 07:03:28;;;;;;;2.50;2.20;;;19.60;99.90;;;;;;4973452;28;20196;-42
2023/07/05 07:05:57;;;;;;;3.90;1.77;;;19.50;99.90;;;;;;4973157;28;20208;-42
2023/07/05 07:08:29;;;;;;;1.73;1.10;;;19.50;99.90;;;;;;4983778;28;20243;-41
2023/07/05 07:10:58;;;;;;;2.22;1.17;;;19.40;99.90;;;;;;4973008;28;20243;-42
2023/07/05 07:13:25;;;;;;;1.33;1.00;;;19.30;99.90;;;;;;4973463;28;20191;-42
2023/07/05 07:16:05;;;;;;;2.72;1.10;;;19.20;99.90;;;;;;4988954;28;20203;-44
2023/07/05 07:18:32;;;;;;;4.70;1.92;;;19.10;99.90;;;;;;4994095;28;20192;-44
2023/07/05 07:21:02;;;;;;;3.40;1.20;;;18.90;99.90;;;;;;4977335;28;20283;-44
2023/07/05 07:23:28;;;;;;;5.05;1.13;;;18.80;99.90;;;;;;4977105;28;20245;-43
2023/07/05 07:26:06;;;;;;;1.85;0.93;;;18.60;99.90;;;;;;4975579;28;20239;-43
2023/07/05 07:28:36;;;;;;;1.73;0.98;;;18.30;99.90;;;;;;5009784;28;20262;-43
2023/07/05 07:31:14;;;;;;;3.33;1.30;;;18.20;99.90;;;;;;4976763;28;20207;-43
2023/07/05 07:33:40;;;;;;;1.85;1.00;;;18.10;99.90;;;;;;4987883;28;20184;-44
2023/07/05 07:36:11;;;;;;;2.15;1.10;;;18.00;99.90;;;;;;4976384;28;20187;-43
2023/07/05 07:38:38;;;;;;;2.10;1.23;;;17.90;99.90;;;;;;4976849;28;20298;-43
2023/07/05 07:41:23;;;;;;;1.77;1.10;;;17.80;99.90;;;;;;4976569;28;20196;-43
2023/07/05 07:43:54;;;;;;;1.75;1.05;;;17.70;99.90;;;;;;4976832;28;20668;-44
2023/07/05 07:46:24;;;;;;;2.92;1.45;;;17.60;99.90;;;;;;4976711;28;20191;-44
2023/07/05 07:48:53;;;;;;;1.48;1.02;;;17.50;99.90;;;;;;5000787;28;20213;-43
2023/07/05 07:51:20;;;;;;;2.25;1.13;;;17.50;99.90;;;;;;4985804;28;20208;-43
2023/07/05 07:53:47;;;;;;;2.92;1.20;;;17.40;99.90;;;;;;4977807;28;20185;-44
2023/07/05 07:56:16;;;;;;;5.15;1.60;;;17.40;99.90;;;;;;4992813;28;20195;-44
2023/07/05 07:58:48;;;;;;;1.77;1.23;;;17.50;99.90;;;;;;4976637;28;20203;-43
2023/07/05 08:01:24;;;;;;;2.22;1.40;;;17.50;99.90;;;;;;4992216;28;20219;-43
2023/07/05 08:03:51;;;;;;;2.22;1.45;;;17.50;99.90;;;;;;4976279;28;20187;-43
2023/07/05 08:06:17;;;;;;;2.17;1.20;;;17.50;99.90;;;;;;4973417;28;20192;-44
2023/07/05 08:08:43;;;;;;;8.35;1.67;;;17.50;99.90;;;;;;4977958;28;20211;-44
2023/07/05 08:11:12;;;;;;;2.10;1.50;;;17.50;99.90;;;;;;4973792;28;20278;-43
2023/07/05 08:13:40;;;;;;;4.07;1.73;;;17.40;99.90;;;;;;4972869;28;20215;-43
2023/07/05 08:16:08;;;;;;;4.20;2.10;;;17.30;99.90;;;;;;4998793;28;20184;-43
2023/07/05 08:18:35;;;;;;;4.40;1.90;;;17.30;99.90;;;;;;4977596;28;20288;-43
2023/07/05 08:21:05;;;;;;;4.38;1.80;;;17.30;99.90;;;;;;4983872;28;20184;-43
2023/07/05 08:23:33;;;;;;;2.67;1.90;;;17.20;99.90;;;;;;4976595;28;20199;-43
2023/07/05 08:26:00;;;;;;;2.25;1.70;;;17.20;99.90;;;;;;4975321;28;20196;-44
2023/07/05 08:28:28;;;;;;;2.60;1.65;;;17.10;99.90;;;;;;4976915;28;20208;-44
2023/07/05 08:30:58;;;;;;;6.18;2.17;;;17.20;99.90;;;;;;4974977;28;20215;-44
2023/07/05 08:33:28;;;;;;;2.17;1.48;;;17.30;99.90;;;;;;4991436;28;20180;-43
2023/07/05 08:36:28;;;;;;;1.80;1.55;;;17.30;99.90;;;;;;4973774;28;20176;-44
2023/07/05 08:38:56;;;;;;;2.38;1.58;;;17.30;99.90;;;;;;4990682;28;20234;-44
2023/07/05 08:41:43;;;;;;;2.00;1.77;;;17.30;99.90;;;;;;4988228;28;20192;-44
2023/07/05 08:44:14;;;;;;;3.28;1.67;;;17.30;99.90;;;;;;5002973;28;20194;-43
2023/07/05 08:46:41;;;;;;;2.65;1.70;;;17.20;99.90;;;;;;4972638;28;20184;-42
2023/07/05 08:49:12;;;;;;;2.85;1.75;;;17.20;99.90;;;;;;5015308;28;20211;-43
2023/07/05 08:51:41;;;;;;;2.03;1.63;;;17.20;99.90;;;;;;4985826;28;20254;-41
2023/07/05 08:54:11;;;;;;;1.98;1.60;;;17.30;99.90;;;;;;4982258;28;20220;-43
2023/07/05 08:56:48;;;;;;;2.17;1.98;;;17.40;99.90;;;;;;4967624;28;20180;-43
2023/07/05 08:59:31;;;;;;;3.50;2.05;;;17.50;99.90;;;;;;4974141;28;20189;-43
2023/07/05 09:01:59;;;;;;;2.83;2.10;;;17.70;99.90;;;;;;4980577;28;20191;-43
2023/07/05 09:04:35;;;;;;;3.13;1.92;;;17.80;99.90;;;;;;4970554;28;20191;-42
2023/07/05 09:07:18;;;;;;;3.30;1.85;;;18.00;99.90;;;;;;4990381;28;20188;-43
2023/07/05 09:09:58;;;;;;;2.60;1.50;;;18.00;99.90;;;;;;4966497;28;20189;-42
2023/07/05 09:12:30;;;;;;;4.35;1.70;;;18.20;99.90;;;;;;4989900;28;20195;-43
2023/07/05 09:15:22;;;;;;;2.45;1.63;;;18.60;99.90;;;;;;4971618;28;20180;-42
2023/07/05 09:18:00;;;;;;;2.33;1.40;;;18.80;99.90;;;;;;4989213;28;20204;-41
2023/07/05 09:20:55;;;;;;;3.45;1.77;;;19.00;99.90;;;;;;4987662;28;20199;-43
2023/07/05 09:23:45;;;;;;;1.60;1.42;;;19.30;99.90;;;;;;4979335;28;20192;-43
2023/07/05 09:26:23;;;;;;;1.63;1.25;;;19.60;99.90;;;;;;4988875;28;20188;-43
2023/07/05 09:29:06;;;;;;;2.38;1.88;;;19.70;99.90;;;;;;4974616;28;20195;-43
2023/07/05 09:31:34;;;;;;;1.63;1.52;;;19.90;99.90;;;;;;4971664;28;20208;-43
2023/07/05 09:34:26;;;;;;;1.85;1.60;;;20.10;99.90;;;;;;4973863;28;20217;-43
2023/07/05 09:36:52;;;;;;;1.60;1.50;;;20.20;99.90;;;;;;4974221;28;20183;-42
2023/07/05 09:40:04;;;;;;;2.63;1.60;;;20.20;99.90;;;;;;4979489;28;20188;-43
2023/07/05 09:42:40;;;;;;;2.13;1.55;;;20.40;99.90;;;;;;4970514;28;20188;-43
2023/07/05 09:45:13;;;;;;;2.60;1.98;;;20.50;99.90;;;;;;4987661;28;20184;-41
2023/07/05 09:47:39;;;;;;;2.33;1.60;;;20.60;99.90;;;;;;4980707;28;20244;-42
2023/07/05 09:50:19;;;;;;;2.17;1.63;;;20.70;99.90;;;;;;5002680;28;20187;-44
2023/07/05 09:52:49;;;;;;;2.03;1.60;;;20.60;99.90;;;;;;4973347;28;20180;-42
2023/07/05 09:55:17;;;;;;;1.90;1.67;;;20.80;99.90;;;;;;4974061;28;20172;-43
2023/07/05 09:57:43;;;;;;;2.13;1.77;;;20.90;99.90;;;;;;4973691;28;20206;-43
2023/07/05 10:00:32;;;;;;;1.67;1.45;;;21.00;99.90;;;;;;4973188;28;20187;-43
2023/07/05 10:03:10;;;;;;;3.30;2.00;;;21.20;99.90;;;;;;4973697;28;20215;-43
2023/07/05 10:05:37;;;;;;;2.60;1.92;;;21.30;99.90;;;;;;5001153;28;20172;-43
2023/07/05 10:08:14;;;;;;;2.28;2.03;;;21.40;99.90;;;;;;4973521;28;20214;-42
2023/07/05 10:10:40;;;;;;;3.33;1.88;;;21.40;99.90;;;;;;4973841;28;20210;-43
2023/07/05 10:13:21;;;;;;;3.17;1.50;;;21.50;99.90;;;;;;4974059;28;20176;-43
2023/07/05 10:15:50;;;;;;;2.22;1.98;;;21.70;99.90;;;;;;4974145;28;20197;-42
2023/07/05 10:18:32;;;;;;;2.05;1.80;;;21.80;99.90;;;;;;4984312;28;20206;-44
2023/07/05 10:21:02;;;;;;;2.17;1.80;;;21.90;99.90;;;;;;4987157;28;20196;-43
2023/07/05 10:23:30;;;;;;;2.45;1.88;;;22.00;99.90;;;;;;4973747;28;20188;-40
2023/07/05 10:26:03;;;;;;;2.70;2.10;;;22.00;99.90;;;;;;4986318;28;20239;-43
2023/07/05 10:28:31;;;;;;;2.17;1.95;;;22.00;99.90;;;;;;4973958;28;20204;-43
2023/07/05 10:31:00;;;;;;;1.90;1.77;;;22.20;99.90;;;;;;4974074;28;20200;-43
2023/07/05 10:33:31;;;;;;;2.30;2.10;;;22.20;99.90;;;;;;4974191;28;20222;-43
2023/07/05 10:36:05;;;;;;;2.42;2.15;;;22.20;99.90;;;;;;4970268;28;20188;-43
2023/07/05 10:38:44;;;;;;;2.25;2.05;;;22.10;99.90;;;;;;5003133;28;20235;-44
2023/07/05 10:41:19;;;;;;;2.50;2.22;;;22.20;99.90;;;;;;4971150;28;20278;-43
2023/07/05 10:44:16;;;;;;;2.72;2.28;;;22.30;99.90;;;;;;4973564;28;20233;-43
2023/07/05 10:46:46;;;;;;;4.97;2.40;;;22.60;99.90;;;;;;4968850;28;20196;-43
2023/07/05 10:49:15;;;;;;;2.80;2.50;;;22.70;99.90;;;;;;5006095;28;20189;-43
2023/07/05 10:51:47;;;;;;;2.63;2.38;;;22.70;99.90;;;;;;4962270;28;20231;-44
2023/07/05 10:54:35;;;;;;;2.97;2.60;;;22.70;99.90;;;;;;4988855;28;20195;-41
2023/07/05 10:57:26;;;;;;;2.95;2.30;;;22.70;99.90;;;;;;4976593;28;20233;-43
2023/07/05 11:00:01;;;;;;;6.00;2.60;;;22.90;99.90;;;;;;4986980;28;20188;-41
2023/07/05 11:02:29;;;;;;;3.05;2.20;;;23.10;99.90;;;;;;4977818;28;20181;-41
2023/07/05 11:04:58;;;;;;;3.40;2.60;;;23.00;99.90;;;;;;4991908;28;20192;-43
2023/07/05 11:07:25;;;;;;;2.60;2.30;;;23.20;99.90;;;;;;4987119;28;20291;-43
2023/07/05 11:09:54;;;;;;;3.03;2.42;;;23.10;99.90;;;;;;4979088;28;20181;-44
2023/07/05 11:12:29;;;;;;;3.03;2.60;;;23.20;99.90;;;;;;4988559;28;20184;-43
2023/07/05 11:14:57;;;;;;;3.55;2.58;;;23.40;99.90;;;;;;4965855;28;20179;-43
2023/07/05 11:17:35;;;;;;;2.60;2.40;;;23.50;99.90;;;;;;4973408;28;20207;-43
2023/07/05 11:20:36;;;;;;;2.60;2.00;;;23.50;99.90;;;;;;5007686;28;20183;-42
2023/07/05 11:23:02;;;;;;;2.28;2.08;;;23.20;99.90;;;;;;4986161;28;20181;-42
2023/07/05 11:25:53;;;;;;;2.95;2.45;;;23.10;99.90;;;;;;4976552;28;20200;-42
2023/07/05 11:28:45;;;;;;;2.88;2.38;;;23.10;99.90;;;;;;4969303;28;20212;-43
2023/07/05 11:31:40;;;;;;;2.60;2.35;;;23.20;99.90;;;;;;4995996;28;20299;-41
2023/07/05 11:34:21;;;;;;;2.90;2.55;;;23.40;99.90;;;;;;4970472;28;20192;-43
2023/07/05 11:37:04;;;;;;;3.53;2.55;;;23.40;99.90;;;;;;4987818;28;20188;-43
2023/07/05 11:39:57;;;;;;;3.15;2.63;;;23.50;99.90;;;;;;4995837;28;20208;-43
2023/07/05 11:42:37;;;;;;;2.92;2.63;;;24.00;99.90;;;;;;4983029;28;20211;-43
2023/07/05 11:45:07;;;;;;;3.83;2.78;;;24.00;99.90;;;;;;4977310;28;20184;-43
2023/07/05 11:47:34;;;;;;;3.25;2.40;;;24.10;99.90;;;;;;4969890;28;20200;-43
2023/07/05 11:50:07;;;;;;;2.95;2.70;;;23.90;99.90;;;;;;4990697;28;20187;-44
2023/07/05 11:52:34;;;;;;;3.70;2.33;;;23.80;99.90;;;;;;4975441;28;20188;-43
2023/07/05 11:55:12;;;;;;;3.30;2.60;;;23.70;99.90;;;;;;4968824;28;20239;-44
2023/07/05 11:57:47;;;;;;;3.03;2.75;;;23.60;99.90;;;;;;4987174;28;20196;-43
2023/07/05 12:00:35;;;;;;;3.08;2.63;;;23.90;99.90;;;;;;4988851;28;20223;-42
2023/07/05 12:03:07;;;;;;;3.42;2.90;;;23.70;99.90;;;;;;4984568;28;20196;-44
2023/07/05 12:05:36;;;;;;;4.75;2.75;;;23.50;99.90;;;;;;4987296;28;20279;-43
2023/07/05 12:08:14;;;;;;;3.10;2.80;;;23.70;99.90;;;;;;4974448;28;20203;-44
2023/07/05 12:10:51;;;;;;;3.63;2.72;;;23.70;99.90;;;;;;4986165;28;20243;-40
2023/07/05 12:13:25;;;;;;;3.03;2.72;;;23.60;99.90;;;;;;4993810;28;20191;-40
2023/07/05 12:15:53;;;;;;;2.97;2.67;;;23.80;99.90;;;;;;4967509;28;20184;-42
2023/07/05 12:18:20;;;;;;;3.08;2.60;;;23.90;99.90;;;;;;4972274;28;20207;-43
2023/07/05 12:20:58;;;;;;;3.00;2.47;;;24.20;99.90;;;;;;4986070;28;20382;-44
2023/07/05 12:23:29;;;;;;;2.90;2.50;;;24.40;99.90;;;;;;4972855;28;20184;-43
2023/07/05 12:25:58;;;;;;;3.70;2.90;;;24.30;99.90;;;;;;4978479;28;20180;-43
2023/07/05 12:28:27;;;;;;;2.63;2.35;;;24.40;99.90;;;;;;4972499;28;20215;-42
2023/07/05 12:31:03;;;;;;;3.08;2.78;;;24.80;99.90;;;;;;4972492;28;20204;-43
2023/07/05 12:33:36;;;;;;;3.35;2.55;;;25.30;99.90;;;;;;4981399;28;20176;-43
2023/07/05 12:36:19;;;;;;;3.85;2.63;;;25.50;99.90;;;;;;4986123;28;20184;-43
2023/07/05 12:38:50;;;;;;;3.13;2.83;;;25.40;99.90;;;;;;4973240;28;20203;-43
2023/07/05 12:41:20;;;;;;;3.67;2.50;;;25.50;99.90;;;;;;4988538;28;20196;-43
2023/07/05 12:43:49;;;;;;;2.90;2.60;;;25.40;99.90;;;;;;4965278;28;20212;-43
2023/07/05 12:46:20;;;;;;;2.92;2.58;;;25.10;99.90;;;;;;4983668;28;20187;-43
2023/07/05 12:48:49;;;;;;;3.13;2.65;;;24.80;99.90;;;;;;4968766;28;20204;-43
2023/07/05 12:51:19;;;;;;;3.00;2.70;;;24.90;99.90;;;;;;4988190;28;20302;-44
2023/07/05 12:53:50;;;;;;;2.50;2.30;;;25.30;99.90;;;;;;4987945;28;20203;-43
2023/07/05 12:56:29;;;;;;;3.47;2.58;;;25.60;99.90;;;;;;4991566;28;20181;-43
2023/07/05 12:58:57;;;;;;;2.95;2.65;;;25.50;99.90;;;;;;4978284;28;20208;-44
2023/07/05 13:01:35;;;;;;;3.38;2.80;;;25.40;99.90;;;;;;5005593;28;20185;-44
2023/07/05 13:04:07;;;;;;;2.60;2.38;;;25.60;99.90;;;;;;5005465;28;20191;-42
2023/07/05 13:06:34;;;;;;;2.85;2.45;;;25.60;99.90;;;;;;4996120;28;20220;-43